SCO15TU EGAA-EGPH
Flight info
| Callsign | SCO15TU |
|---|---|
| Flight time | 0h 28m |
| Altitude | 19000 |
| Route | EGAA/07 BLACA P600 TUNSO |
| Aircraft | B738/M-SDE2E3FGHIRWXY/LB1 |
Departure
| Time | 2026-05-05 21:04 |
|---|---|
| Airport | Belfast International Airport (EGAA) |
Arrival
| Time | 2026-05-05 21:32 |
|---|---|
| Airport | Edinburgh Airport (EGPH) |
| Time | Latitude | Longitude | Altitude | Speed | Heading |
|---|---|---|---|---|---|
| 2026-05-05 20:48 | 54.66078 | -6.21646 | 273 ft | 0 kts | 335° |
| 2026-05-05 20:56 | 54.66065 | -6.21636 | 273 ft | 2 kts | 335° |
| 2026-05-05 20:56 | 54.66050 | -6.21624 | 274 ft | 2 kts | 335° |
| 2026-05-05 20:56 | 54.66035 | -6.21612 | 275 ft | 2 kts | 335° |
| 2026-05-05 20:57 | 54.66020 | -6.21600 | 275 ft | 2 kts | 336° |
| 2026-05-05 20:57 | 54.66005 | -6.21589 | 274 ft | 2 kts | 337° |
| 2026-05-05 20:57 | 54.65990 | -6.21578 | 274 ft | 2 kts | 338° |
| 2026-05-05 20:57 | 54.65974 | -6.21567 | 274 ft | 2 kts | 341° |
| 2026-05-05 20:58 | 54.65959 | -6.21559 | 275 ft | 2 kts | 351° |
| 2026-05-05 20:58 | 54.65942 | -6.21561 | 271 ft | 2 kts | 46° |
| 2026-05-05 20:58 | 54.65938 | -6.21570 | 275 ft | 0 kts | 62° |
| 2026-05-05 20:59 | 54.65940 | -6.21566 | 279 ft | 3 kts | 63° |
| 2026-05-05 21:00 | 54.65979 | -6.21480 | 271 ft | 8 kts | 40° |
| 2026-05-05 21:00 | 54.65955 | -6.21448 | 271 ft | 6 kts | 223° |
| 2026-05-05 21:00 | 54.65936 | -6.21567 | 275 ft | 20 kts | 246° |
| 2026-05-05 21:00 | 54.65859 | -6.21853 | 271 ft | 27 kts | 246° |
| 2026-05-05 21:01 | 54.65784 | -6.22138 | 271 ft | 25 kts | 250° |
| 2026-05-05 21:01 | 54.65763 | -6.22330 | 271 ft | 24 kts | 264° |
| 2026-05-05 21:01 | 54.65745 | -6.22607 | 271 ft | 23 kts | 266° |
| 2026-05-05 21:01 | 54.65720 | -6.22870 | 273 ft | 22 kts | 243° |
| 2026-05-05 21:02 | 54.65633 | -6.23084 | 271 ft | 21 kts | 233° |
| 2026-05-05 21:02 | 54.65509 | -6.23338 | 271 ft | 21 kts | 205° |
| 2026-05-05 21:02 | 54.65427 | -6.23394 | 271 ft | 0 kts | 201° |
| 2026-05-05 21:03 | 54.65363 | -6.23398 | 271 ft | 19 kts | 159° |
| 2026-05-05 21:03 | 54.65304 | -6.23231 | 271 ft | 19 kts | 70° |
| 2026-05-05 21:03 | 54.65422 | -6.22800 | 276 ft | 75 kts | 65° |
| 2026-05-05 21:04 | 54.65748 | -6.21589 | 273 ft | 144 kts | 65° |
| 2026-05-05 21:04 | 54.66189 | -6.19896 | 763 ft | 167 kts | 65° |
| 2026-05-05 21:04 | 54.66622 | -6.18014 | 1840 ft | 158 kts | 64° |
| 2026-05-05 21:04 | 54.67005 | -6.16269 | 2793 ft | 159 kts | 65° |
| 2026-05-05 21:05 | 54.67435 | -6.14327 | 3160 ft | 192 kts | 66° |
| 2026-05-05 21:05 | 54.67948 | -6.11992 | 3434 ft | 219 kts | 67° |
| 2026-05-05 21:05 | 54.68505 | -6.09443 | 3914 ft | 232 kts | 68° |
| 2026-05-05 21:05 | 54.69099 | -6.06705 | 4358 ft | 253 kts | 69° |
| 2026-05-05 21:06 | 54.69721 | -6.03827 | 4941 ft | 258 kts | 69° |
| 2026-05-05 21:06 | 54.70359 | -6.00869 | 5430 ft | 265 kts | 70° |
| 2026-05-05 21:06 | 54.71004 | -5.97873 | 6377 ft | 267 kts | 70° |
| 2026-05-05 21:06 | 54.71656 | -5.94839 | 7234 ft | 272 kts | 69° |
| 2026-05-05 21:07 | 54.72325 | -5.91725 | 7984 ft | 280 kts | 68° |
| 2026-05-05 21:07 | 54.73010 | -5.88529 | 8764 ft | 287 kts | 68° |
| 2026-05-05 21:07 | 54.73698 | -5.85323 | 9624 ft | 290 kts | 68° |
| 2026-05-05 21:07 | 54.74406 | -5.82011 | 10371 ft | 297 kts | 68° |
| 2026-05-05 21:08 | 54.75153 | -5.78525 | 10650 ft | 322 kts | 68° |
| 2026-05-05 21:08 | 54.75953 | -5.74782 | 10968 ft | 341 kts | 68° |
| 2026-05-05 21:08 | 54.76783 | -5.70876 | 11649 ft | 348 kts | 68° |
| 2026-05-05 21:08 | 54.77624 | -5.66910 | 12439 ft | 353 kts | 68° |
| 2026-05-05 21:09 | 54.78474 | -5.62893 | 13245 ft | 358 kts | 68° |
| 2026-05-05 21:09 | 54.79336 | -5.58809 | 14035 ft | 363 kts | 68° |
| 2026-05-05 21:09 | 54.80207 | -5.54679 | 14794 ft | 367 kts | 68° |
| 2026-05-05 21:09 | 54.81088 | -5.50494 | 15580 ft | 371 kts | 68° |
| 2026-05-05 21:10 | 54.81976 | -5.46262 | 16364 ft | 376 kts | 68° |
| 2026-05-05 21:10 | 54.82873 | -5.41987 | 17119 ft | 380 kts | 68° |
| 2026-05-05 21:10 | 54.83783 | -5.37634 | 17883 ft | 385 kts | 68° |
| 2026-05-05 21:10 | 54.84700 | -5.33245 | 18616 ft | 389 kts | 68° |
| 2026-05-05 21:11 | 54.85619 | -5.28836 | 18987 ft | 386 kts | 69° |
| 2026-05-05 21:11 | 54.86529 | -5.24456 | 19078 ft | 387 kts | 69° |
| 2026-05-05 21:11 | 54.87501 | -5.20099 | 19058 ft | 386 kts | 61° |
| 2026-05-05 21:11 | 54.89018 | -5.16323 | 19081 ft | 380 kts | 44° |
| 2026-05-05 21:12 | 54.91025 | -5.13413 | 19069 ft | 370 kts | 28° |
| 2026-05-05 21:12 | 54.93258 | -5.11396 | 19082 ft | 357 kts | 22° |
| 2026-05-05 21:12 | 54.95484 | -5.09535 | 19069 ft | 354 kts | 22° |
| 2026-05-05 21:12 | 54.97702 | -5.07685 | 19074 ft | 354 kts | 22° |
| 2026-05-05 21:13 | 54.99926 | -5.05806 | 18934 ft | 357 kts | 23° |
| 2026-05-05 21:13 | 55.02140 | -5.03906 | 18673 ft | 353 kts | 23° |
| 2026-05-05 21:13 | 55.04342 | -5.01997 | 18266 ft | 353 kts | 23° |
| 2026-05-05 21:13 | 55.06532 | -5.00090 | 17837 ft | 350 kts | 23° |
| 2026-05-05 21:14 | 55.08676 | -4.98221 | 17445 ft | 347 kts | 23° |
| 2026-05-05 21:14 | 55.10679 | -4.95882 | 17033 ft | 350 kts | 42° |
| 2026-05-05 21:14 | 55.12089 | -4.92467 | 16877 ft | 347 kts | 61° |
| 2026-05-05 21:14 | 55.13095 | -4.88655 | 16658 ft | 345 kts | 63° |
| 2026-05-05 21:15 | 55.14329 | -4.85077 | 16242 ft | 343 kts | 46° |
| 2026-05-05 21:15 | 55.16009 | -4.82162 | 15897 ft | 340 kts | 39° |
| 2026-05-05 21:15 | 55.17770 | -4.79405 | 15586 ft | 339 kts | 38° |
| 2026-05-05 21:15 | 55.19537 | -4.76665 | 15270 ft | 338 kts | 38° |
| 2026-05-05 21:16 | 55.21286 | -4.73945 | 14988 ft | 336 kts | 38° |
| 2026-05-05 21:16 | 55.23020 | -4.71234 | 14700 ft | 334 kts | 39° |
| 2026-05-05 21:16 | 55.24749 | -4.68517 | 14408 ft | 333 kts | 39° |
| 2026-05-05 21:16 | 55.26466 | -4.65806 | 14137 ft | 332 kts | 39° |
| 2026-05-05 21:17 | 55.28178 | -4.63096 | 13831 ft | 331 kts | 39° |
| 2026-05-05 21:17 | 55.29885 | -4.60386 | 13526 ft | 330 kts | 39° |
| 2026-05-05 21:17 | 55.31582 | -4.57687 | 13218 ft | 328 kts | 39° |
| 2026-05-05 21:17 | 55.33265 | -4.55006 | 12931 ft | 327 kts | 39° |
| 2026-05-05 21:18 | 55.34949 | -4.52318 | 12647 ft | 325 kts | 39° |
| 2026-05-05 21:18 | 55.36619 | -4.49650 | 12362 ft | 324 kts | 39° |
| 2026-05-05 21:18 | 55.38287 | -4.46981 | 12095 ft | 323 kts | 39° |
| 2026-05-05 21:18 | 55.39948 | -4.44322 | 11807 ft | 323 kts | 39° |
| 2026-05-05 21:19 | 55.41597 | -4.41676 | 11530 ft | 319 kts | 39° |
| 2026-05-05 21:19 | 55.43226 | -4.39059 | 11256 ft | 315 kts | 39° |
| 2026-05-05 21:19 | 55.44826 | -4.36485 | 10986 ft | 310 kts | 39° |
| 2026-05-05 21:19 | 55.46411 | -4.33934 | 10719 ft | 306 kts | 39° |
| 2026-05-05 21:20 | 55.47969 | -4.31422 | 10464 ft | 301 kts | 39° |
| 2026-05-05 21:20 | 55.49504 | -4.28946 | 10202 ft | 297 kts | 39° |
| 2026-05-05 21:20 | 55.51007 | -4.26519 | 10054 ft | 288 kts | 39° |
| 2026-05-05 21:20 | 55.52458 | -4.24170 | 9904 ft | 280 kts | 39° |
| 2026-05-05 21:21 | 55.53893 | -4.21850 | 9552 ft | 279 kts | 39° |
| 2026-05-05 21:21 | 55.55325 | -4.19533 | 9181 ft | 279 kts | 39° |
| 2026-05-05 21:21 | 55.56756 | -4.17215 | 8814 ft | 279 kts | 40° |
| 2026-05-05 21:21 | 55.58190 | -4.14888 | 8452 ft | 279 kts | 40° |
| 2026-05-05 21:22 | 55.59620 | -4.12566 | 8092 ft | 280 kts | 40° |
| 2026-05-05 21:22 | 55.61045 | -4.10248 | 7720 ft | 274 kts | 40° |
| 2026-05-05 21:22 | 55.62427 | -4.07997 | 7356 ft | 268 kts | 40° |
| 2026-05-05 21:22 | 55.63784 | -4.05784 | 7003 ft | 261 kts | 40° |
| 2026-05-05 21:23 | 55.65101 | -4.03633 | 6651 ft | 256 kts | 40° |
| 2026-05-05 21:23 | 55.66400 | -4.01512 | 6274 ft | 251 kts | 40° |
| 2026-05-05 21:23 | 55.67673 | -3.99430 | 5906 ft | 246 kts | 40° |
| 2026-05-05 21:23 | 55.68922 | -3.97387 | 5539 ft | 242 kts | 41° |
| 2026-05-05 21:24 | 55.70152 | -3.95375 | 5169 ft | 238 kts | 42° |
| 2026-05-05 21:24 | 55.71355 | -3.93405 | 4807 ft | 233 kts | 43° |
| 2026-05-05 21:24 | 55.72536 | -3.91471 | 4433 ft | 230 kts | 43° |
| 2026-05-05 21:24 | 55.73706 | -3.89550 | 4065 ft | 226 kts | 44° |
| 2026-05-05 21:25 | 55.74821 | -3.87717 | 3984 ft | 211 kts | 44° |
| 2026-05-05 21:25 | 55.75859 | -3.86013 | 3969 ft | 199 kts | 44° |
| 2026-05-05 21:25 | 55.76865 | -3.84358 | 3992 ft | 195 kts | 44° |
| 2026-05-05 21:25 | 55.77852 | -3.82731 | 3984 ft | 193 kts | 44° |
| 2026-05-05 21:26 | 55.78844 | -3.81097 | 3984 ft | 195 kts | 44° |
| 2026-05-05 21:26 | 55.79841 | -3.79451 | 3986 ft | 196 kts | 44° |
| 2026-05-05 21:26 | 55.80842 | -3.77799 | 3986 ft | 197 kts | 44° |
| 2026-05-05 21:26 | 55.81767 | -3.76024 | 3983 ft | 196 kts | 52° |
| 2026-05-05 21:27 | 55.82560 | -3.74101 | 3988 ft | 196 kts | 56° |
| 2026-05-05 21:27 | 55.83294 | -3.72065 | 3986 ft | 196 kts | 59° |
| 2026-05-05 21:27 | 55.84000 | -3.69996 | 3981 ft | 196 kts | 59° |
| 2026-05-05 21:27 | 55.84695 | -3.67926 | 3953 ft | 193 kts | 59° |
| 2026-05-05 21:28 | 55.85386 | -3.65859 | 3765 ft | 196 kts | 59° |
| 2026-05-05 21:28 | 55.86078 | -3.63793 | 3512 ft | 193 kts | 60° |
| 2026-05-05 21:28 | 55.86760 | -3.61758 | 3254 ft | 190 kts | 60° |
| 2026-05-05 21:28 | 55.87422 | -3.59781 | 2980 ft | 181 kts | 60° |
| 2026-05-05 21:29 | 55.88054 | -3.57900 | 2736 ft | 171 kts | 61° |
| 2026-05-05 21:29 | 55.88652 | -3.56118 | 2515 ft | 165 kts | 61° |
| 2026-05-05 21:29 | 55.89238 | -3.54369 | 2279 ft | 165 kts | 61° |
| 2026-05-05 21:29 | 55.89810 | -3.52667 | 2053 ft | 155 kts | 61° |
| 2026-05-05 21:30 | 55.90348 | -3.51067 | 1875 ft | 150 kts | 61° |
| 2026-05-05 21:30 | 55.90872 | -3.49508 | 1625 ft | 141 kts | 61° |
| 2026-05-05 21:30 | 55.91359 | -3.48059 | 1421 ft | 132 kts | 62° |
| 2026-05-05 21:30 | 55.91821 | -3.46685 | 1209 ft | 127 kts | 61° |
| 2026-05-05 21:31 | 55.92287 | -3.45324 | 1088 ft | 130 kts | 61° |
| 2026-05-05 21:31 | 55.92760 | -3.43907 | 856 ft | 134 kts | 62° |
| 2026-05-05 21:31 | 55.93234 | -3.42496 | 688 ft | 132 kts | 62° |
| 2026-05-05 21:31 | 55.93699 | -3.41106 | 528 ft | 128 kts | 62° |
| 2026-05-05 21:32 | 55.94170 | -3.39711 | 299 ft | 135 kts | 61° |
| 2026-05-05 21:32 | 55.94648 | -3.38294 | 115 ft | 128 kts | 61° |
| 2026-05-05 21:32 | 55.95022 | -3.37183 | 110 ft | 74 kts | 59° |
| 2026-05-05 21:32 | 55.95210 | -3.36632 | 110 ft | 40 kts | 59° |
| 2026-05-05 21:33 | 55.95230 | -3.36389 | 112 ft | 16 kts | 148° |
| 2026-05-05 21:33 | 55.95189 | -3.36346 | 113 ft | 4 kts | 149° |
| 2026-05-05 21:33 | 55.95163 | -3.36317 | 114 ft | 4 kts | 149° |
| 2026-05-05 21:33 | 55.95124 | -3.36314 | 115 ft | 8 kts | 210° |
| 2026-05-05 21:34 | 55.95083 | -3.36401 | 114 ft | 10 kts | 197° |
| 2026-05-05 21:34 | 55.95021 | -3.36348 | 113 ft | 11 kts | 146° |
| 2026-05-05 21:34 | 55.94973 | -3.36295 | 114 ft | 4 kts | 149° |
| 2026-05-05 21:34 | 55.94959 | -3.36280 | 115 ft | 0 kts | 149° |